Time;durP1;ratioP1;P1;durP2;ratioP2;P2;SDS_P1;SDS_P2;PMS_P1;PMS_P2;Temp;Humidity;BMP_temperature;BMP_pressure;BME280_temperature;BME280_humidity;BME280_pressure;Samples;Min_cycle;Max_cycle;Signal;HPM_P1;HPM_P2
2024/02/27 00:02:17;;;;;;;14.55;5.95;;;2.00;99.90;;;;;;5108838;28;20302;-46
2024/02/27 00:04:42;;;;;;;8.82;5.65;;;1.90;99.90;;;;;;5107687;28;20052;-46
2024/02/27 00:07:11;;;;;;;10.70;6.03;;;2.00;99.90;;;;;;5108788;28;20036;-46
2024/02/27 00:09:46;;;;;;;9.75;6.05;;;2.00;99.90;;;;;;5108564;28;20081;-46
2024/02/27 00:12:12;;;;;;;8.75;5.70;;;1.90;99.90;;;;;;5108665;28;20234;-46
2024/02/27 00:14:37;;;;;;;9.88;6.07;;;2.00;99.90;;;;;;5108532;28;20016;-46
2024/02/27 00:17:04;;;;;;;12.38;6.32;;;2.00;99.90;;;;;;5108641;28;20289;-47
2024/02/27 00:19:30;;;;;;;9.93;5.82;;;1.90;99.90;;;;;;5108381;28;20185;-48
2024/02/27 00:21:56;;;;;;;9.15;6.05;;;2.00;99.90;;;;;;5107263;28;20244;-46
2024/02/27 00:24:22;;;;;;;10.40;6.05;;;2.00;99.90;;;;;;5107789;28;20052;-47
2024/02/27 00:26:47;;;;;;;9.88;5.80;;;1.70;99.90;;;;;;5107845;28;20040;-45
2024/02/27 00:29:13;;;;;;;11.18;5.82;;;1.60;99.90;;;;;;5107896;28;20055;-46
2024/02/27 00:31:39;;;;;;;8.60;5.65;;;1.70;99.90;;;;;;5108012;28;20028;-46
2024/02/27 00:34:04;;;;;;;8.50;5.70;;;1.80;99.90;;;;;;5108159;28;20032;-46
2024/02/27 00:36:30;;;;;;;9.48;5.30;;;1.80;99.90;;;;;;5108130;28;20031;-45
2024/02/27 00:38:56;;;;;;;9.70;6.38;;;1.80;99.90;;;;;;5108047;28;20239;-46
2024/02/27 00:41:21;;;;;;;10.90;6.25;;;1.80;99.90;;;;;;5107842;28;20039;-46
2024/02/27 00:43:47;;;;;;;9.38;6.38;;;1.90;99.90;;;;;;5108249;28;20046;-46
2024/02/27 00:46:12;;;;;;;9.13;5.55;;;1.80;99.90;;;;;;5107871;28;20289;-46
2024/02/27 00:48:38;;;;;;;8.85;6.00;;;1.50;99.90;;;;;;5107858;28;20202;-48
2024/02/27 00:51:04;;;;;;;9.07;6.10;;;1.60;99.90;;;;;;5107615;28;20039;-45
2024/02/27 00:53:30;;;;;;;9.35;5.82;;;1.70;99.90;;;;;;5107593;28;20035;-46
2024/02/27 00:55:55;;;;;;;8.57;6.03;;;1.70;99.90;;;;;;5107566;28;20047;-47
2024/02/27 00:58:22;;;;;;;7.88;5.45;;;1.70;99.90;;;;;;5107139;28;20082;-46
2024/02/27 01:00:48;;;;;;;9.65;5.97;;;1.70;99.90;;;;;;5107184;28;20095;-47
2024/02/27 01:03:14;;;;;;;10.48;6.18;;;1.80;99.90;;;;;;5107276;28;20109;-47
2024/02/27 01:05:39;;;;;;;11.57;6.15;;;1.80;99.90;;;;;;5107577;28;20147;-46
2024/02/27 01:08:05;;;;;;;9.77;5.95;;;1.80;99.90;;;;;;5107469;28;20085;-46
2024/02/27 01:10:31;;;;;;;10.70;6.38;;;1.80;99.90;;;;;;5107342;28;20093;-46
2024/02/27 01:12:56;;;;;;;12.05;6.50;;;1.80;99.90;;;;;;5107049;28;20047;-46
2024/02/27 01:15:22;;;;;;;9.23;5.88;;;1.80;99.90;;;;;;5107261;28;20059;-47
2024/02/27 01:17:48;;;;;;;12.20;6.63;;;1.70;99.90;;;;;;5107133;28;20036;-46
2024/02/27 01:20:13;;;;;;;12.18;6.38;;;1.80;99.90;;;;;;5107235;28;20089;-46
2024/02/27 01:22:39;;;;;;;9.32;6.43;;;1.80;99.90;;;;;;5089055;28;20239;-46
2024/02/27 01:25:06;;;;;;;10.77;6.53;;;1.90;99.90;;;;;;5106846;28;20060;-45
2024/02/27 01:27:31;;;;;;;10.50;6.28;;;1.90;99.90;;;;;;5106869;28;20031;-47
2024/02/27 01:29:57;;;;;;;10.57;6.57;;;1.90;99.90;;;;;;5106976;28;20036;-45
2024/02/27 01:32:23;;;;;;;11.48;6.50;;;1.90;99.90;;;;;;5107019;28;20197;-46
2024/02/27 01:34:49;;;;;;;9.77;6.32;;;1.90;99.90;;;;;;5106587;28;20277;-45
2024/02/27 01:37:15;;;;;;;10.13;6.28;;;1.90;99.90;;;;;;5106847;28;20100;-47
2024/02/27 01:39:41;;;;;;;11.02;6.85;;;1.90;99.90;;;;;;5106966;28;20278;-46
2024/02/27 01:42:06;;;;;;;10.57;6.35;;;1.90;99.90;;;;;;5106813;28;20047;-45
2024/02/27 01:44:32;;;;;;;10.55;6.57;;;1.90;99.90;;;;;;5106819;28;20116;-45
2024/02/27 01:46:58;;;;;;;8.55;6.38;;;1.90;99.90;;;;;;5106361;28;20237;-46
2024/02/27 01:49:25;;;;;;;10.82;6.57;;;1.80;99.90;;;;;;5105531;28;20073;-46
2024/02/27 01:51:51;;;;;;;10.45;6.90;;;1.90;99.90;;;;;;5105665;28;20091;-45
2024/02/27 01:54:19;;;;;;;14.65;6.45;;;1.90;99.90;;;;;;5105620;28;20046;-47
2024/02/27 01:56:45;;;;;;;10.23;6.53;;;1.90;99.90;;;;;;5106423;28;20078;-46
2024/02/27 01:59:11;;;;;;;10.43;6.43;;;1.80;99.90;;;;;;5105595;28;20333;-46
2024/02/27 02:01:38;;;;;;;10.18;6.72;;;1.60;99.90;;;;;;5105573;28;20035;-46
2024/02/27 02:04:04;;;;;;;12.95;7.40;;;1.70;99.90;;;;;;5105499;28;20016;-45
2024/02/27 02:06:29;;;;;;;11.63;7.13;;;1.80;99.90;;;;;;5088411;28;20043;-46
2024/02/27 02:08:55;;;;;;;12.88;6.90;;;1.80;99.90;;;;;;5106014;28;20036;-45
2024/02/27 02:11:21;;;;;;;11.68;7.05;;;1.90;99.90;;;;;;5104415;28;20028;-47
2024/02/27 02:13:47;;;;;;;11.73;6.88;;;1.90;99.90;;;;;;5106316;28;20091;-51
2024/02/27 02:16:12;;;;;;;11.63;6.40;;;1.90;99.90;;;;;;5105185;28;20355;-46
2024/02/27 02:18:38;;;;;;;10.18;7.00;;;2.00;99.90;;;;;;5106187;28;20031;-46
2024/02/27 02:21:04;;;;;;;10.07;7.15;;;2.00;99.90;;;;;;5106087;28;20039;-49
2024/02/27 02:23:29;;;;;;;13.13;7.03;;;2.00;99.90;;;;;;5105871;28;20052;-46
2024/02/27 02:25:56;;;;;;;9.45;6.75;;;1.90;99.90;;;;;;5105113;28;20162;-46
2024/02/27 02:28:21;;;;;;;9.35;6.40;;;1.90;99.90;;;;;;5105023;28;20040;-46
2024/02/27 02:30:47;;;;;;;12.60;6.68;;;2.00;99.90;;;;;;5105579;28;20054;-47
2024/02/27 02:33:13;;;;;;;7.07;4.28;;;2.00;99.90;;;;;;5105947;28;20019;-46
2024/02/27 02:35:43;;;;;;;7.93;5.15;;;2.10;99.90;;;;;;5106067;28;20028;-46
2024/02/27 02:38:09;;;;;;;;;;;2.20;99.90;;;;;;5106352;28;20028;-47
2024/02/27 02:40:35;;;;;;;11.10;6.45;;;2.40;99.90;;;;;;5105929;28;19912;-47
2024/02/27 02:43:00;;;;;;;7.03;4.15;;;2.30;99.90;;;;;;5105519;28;20087;-45
2024/02/27 02:45:27;;;;;;;8.73;4.88;;;2.30;99.90;;;;;;5105398;28;20190;-45
2024/02/27 02:47:53;;;;;;;9.43;4.60;;;2.40;99.90;;;;;;5105754;28;20178;-45
2024/02/27 02:50:18;;;;;;;10.07;5.00;;;2.40;99.90;;;;;;5087872;28;20095;-47
2024/02/27 02:52:44;;;;;;;4.05;2.55;;;2.40;99.90;;;;;;5104874;28;20062;-45
2024/02/27 02:55:09;;;;;;;7.63;3.85;;;2.60;99.90;;;;;;5105915;28;20016;-47
2024/02/27 02:57:35;;;;;;;6.03;3.13;;;2.70;99.90;;;;;;5105836;28;20055;-45
2024/02/27 03:00:01;;;;;;;4.85;2.53;;;2.70;99.90;;;;;;5105728;28;20062;-45
2024/02/27 03:02:27;;;;;;;6.78;3.00;;;2.80;99.90;;;;;;5105726;28;20178;-46
2024/02/27 03:04:52;;;;;;;6.70;2.00;;;2.90;99.90;;;;;;5105796;28;20099;-45
2024/02/27 03:07:18;;;;;;;4.63;2.20;;;3.10;99.90;;;;;;5105447;28;20193;-46
2024/02/27 03:09:44;;;;;;;4.03;1.92;;;3.10;99.90;;;;;;5105661;28;20032;-46
2024/02/27 03:12:09;;;;;;;5.28;1.88;;;3.20;99.90;;;;;;5105768;28;20030;-46
2024/02/27 03:14:35;;;;;;;4.28;2.20;;;3.30;99.90;;;;;;5105592;28;20043;-46
2024/02/27 03:17:01;;;;;;;4.60;2.10;;;3.30;99.90;;;;;;5105523;28;20027;-46
2024/02/27 03:19:26;;;;;;;3.42;1.90;;;3.40;99.90;;;;;;5105244;28;20028;-46
2024/02/27 03:21:56;;;;;;;4.25;2.10;;;3.50;99.90;;;;;;5106279;28;20031;-46
2024/02/27 03:24:22;;;;;;;4.85;2.17;;;3.50;99.90;;;;;;5109413;28;20253;-45
2024/02/27 03:26:48;;;;;;;3.47;1.85;;;3.60;99.90;;;;;;5109272;28;20031;-46
2024/02/27 03:29:14;;;;;;;3.40;1.70;;;3.60;99.90;;;;;;5109029;28;20047;-45
2024/02/27 03:31:40;;;;;;;3.70;1.83;;;3.70;99.90;;;;;;5109393;28;20024;-46
2024/02/27 03:34:05;;;;;;;4.18;1.80;;;3.70;99.90;;;;;;5109275;28;20039;-46
2024/02/27 03:36:31;;;;;;;11.18;2.47;;;3.70;99.90;;;;;;5109225;28;20182;-46
2024/02/27 03:38:57;;;;;;;3.00;1.55;;;3.80;99.90;;;;;;5109363;28;20028;-45
2024/02/27 03:41:22;;;;;;;6.15;1.77;;;3.80;99.90;;;;;;5108923;28;20077;-46
2024/02/27 03:43:48;;;;;;;4.55;1.60;;;3.90;99.90;;;;;;5109422;28;20071;-45
2024/02/27 03:46:14;;;;;;;4.55;1.90;;;3.90;99.90;;;;;;5109093;28;20023;-46
2024/02/27 03:48:39;;;;;;;4.78;1.95;;;4.00;99.90;;;;;;5108985;28;20052;-47
2024/02/27 03:51:05;;;;;;;3.88;1.80;;;4.00;99.90;;;;;;5108692;28;20044;-45
2024/02/27 03:53:31;;;;;;;5.03;2.30;;;4.10;99.90;;;;;;5108798;28;20079;-46
2024/02/27 03:55:56;;;;;;;5.95;2.00;;;4.10;99.90;;;;;;5108951;28;20016;-46
2024/02/27 03:58:22;;;;;;;5.28;1.95;;;4.20;99.90;;;;;;5108827;28;20055;-46
2024/02/27 04:00:48;;;;;;;3.33;1.63;;;4.20;99.90;;;;;;5108457;28;20089;-46
2024/02/27 04:03:14;;;;;;;5.75;1.75;;;4.30;99.90;;;;;;5108728;28;20023;-46
2024/02/27 04:05:40;;;;;;;2.95;1.45;;;4.30;99.90;;;;;;5108677;28;20047;-46
2024/02/27 04:08:08;;;;;;;4.85;1.67;;;4.30;99.90;;;;;;5090473;28;20066;-46
2024/02/27 04:10:36;;;;;;;1.92;1.50;;;4.40;99.90;;;;;;5108578;28;20047;-46
2024/02/27 04:13:03;;;;;;;4.05;1.60;;;4.40;99.90;;;;;;5108527;28;20338;-46
2024/02/27 04:15:28;;;;;;;2.33;1.50;;;4.50;99.90;;;;;;5108643;28;20031;-46
2024/02/27 04:17:55;;;;;;;3.47;1.60;;;4.50;99.90;;;;;;5108392;28;20028;-46
2024/02/27 04:20:20;;;;;;;3.45;1.90;;;4.60;99.90;;;;;;5108470;28;20085;-47
2024/02/27 04:22:46;;;;;;;5.47;1.55;;;4.60;99.90;;;;;;5107832;28;20063;-46
2024/02/27 04:25:12;;;;;;;5.22;1.73;;;4.60;99.90;;;;;;5108087;28;20051;-46
2024/02/27 04:27:38;;;;;;;4.70;1.48;;;4.70;99.90;;;;;;5108137;28;20043;-46
2024/02/27 04:30:05;;;;;;;2.28;1.50;;;4.70;99.90;;;;;;5108157;28;20028;-45
2024/02/27 04:32:31;;;;;;;3.20;1.65;;;4.80;99.90;;;;;;5108242;28;20016;-47
2024/02/27 04:34:57;;;;;;;4.05;1.67;;;4.80;99.90;;;;;;5107019;28;20043;-46
2024/02/27 04:37:22;;;;;;;3.13;1.50;;;4.80;99.90;;;;;;5108030;28;20079;-45
2024/02/27 04:39:48;;;;;;;3.45;1.70;;;4.90;99.90;;;;;;5107870;28;20031;-45
2024/02/27 04:42:14;;;;;;;2.70;1.50;;;4.90;99.90;;;;;;5107996;28;20040;-45
2024/02/27 04:44:39;;;;;;;3.28;1.50;;;5.00;99.90;;;;;;5107929;28;20035;-46
2024/02/27 04:47:05;;;;;;;3.58;1.23;;;5.00;99.90;;;;;;5108002;28;20062;-45
2024/02/27 04:49:32;;;;;;;2.83;1.30;;;5.10;99.90;;;;;;5107842;28;20051;-45
2024/02/27 04:51:57;;;;;;;1.85;1.13;;;5.10;99.90;;;;;;5107659;28;20030;-45
2024/02/27 04:54:23;;;;;;;3.22;1.23;;;5.10;99.90;;;;;;5107259;28;20027;-45
2024/02/27 04:56:48;;;;;;;3.88;1.30;;;5.20;99.90;;;;;;5107548;28;20065;-48
2024/02/27 04:59:14;;;;;;;7.28;1.88;;;5.20;99.90;;;;;;5107388;28;20043;-47
2024/02/27 05:01:41;;;;;;;4.07;1.42;;;5.20;99.90;;;;;;5107724;28;20031;-45
2024/02/27 05:04:07;;;;;;;3.40;1.42;;;5.30;99.90;;;;;;5107482;28;20081;-46
2024/02/27 05:06:32;;;;;;;4.25;1.30;;;5.30;99.90;;;;;;5107442;28;20077;-46
2024/02/27 05:08:58;;;;;;;4.68;1.50;;;5.40;99.90;;;;;;5106945;28;20029;-46
2024/02/27 05:11:25;;;;;;;3.58;1.30;;;5.40;99.90;;;;;;5107076;28;20206;-48
2024/02/27 05:13:50;;;;;;;2.47;1.50;;;5.50;99.90;;;;;;5107160;28;20027;-45
2024/02/27 05:16:16;;;;;;;5.10;1.27;;;5.50;99.90;;;;;;5107346;28;20019;-46
2024/02/27 05:18:42;;;;;;;4.28;1.55;;;5.50;99.90;;;;;;5107341;28;20055;-47
2024/02/27 05:21:08;;;;;;;4.57;1.40;;;5.50;99.90;;;;;;5107158;28;20055;-47
2024/02/27 05:23:33;;;;;;;5.00;1.55;;;5.50;99.90;;;;;;5107059;28;20056;-46
2024/02/27 05:25:59;;;;;;;3.55;1.30;;;5.50;99.90;;;;;;5106715;28;20043;-46
2024/02/27 05:28:25;;;;;;;3.72;1.52;;;5.50;99.90;;;;;;5107096;28;20083;-47
2024/02/27 05:30:54;;;;;;;5.18;1.50;;;5.50;99.90;;;;;;5107009;28;20024;-47
2024/02/27 05:33:20;;;;;;;5.30;2.05;;;5.60;99.90;;;;;;5106714;28;20032;-46
2024/02/27 05:35:45;;;;;;;3.25;1.52;;;5.60;99.90;;;;;;5107062;28;20038;-46
2024/02/27 05:38:11;;;;;;;3.88;1.42;;;5.60;99.90;;;;;;5106878;28;20020;-46
2024/02/27 05:40:37;;;;;;;6.07;1.85;;;5.70;99.90;;;;;;5106729;28;20038;-45
2024/02/27 05:43:03;;;;;;;3.78;1.60;;;5.70;99.90;;;;;;5106762;28;20285;-46
2024/02/27 05:45:28;;;;;;;2.92;1.30;;;5.70;99.90;;;;;;5106585;28;20177;-45
2024/02/27 05:47:54;;;;;;;6.45;1.50;;;5.70;99.90;;;;;;5105588;28;20036;-45
2024/02/27 05:50:20;;;;;;;2.90;1.63;;;5.60;99.90;;;;;;5106489;28;20032;-45
2024/02/27 05:52:46;;;;;;;4.07;1.60;;;5.70;99.90;;;;;;5106714;28;20020;-46
2024/02/27 05:55:12;;;;;;;2.80;1.65;;;5.70;99.90;;;;;;5106360;28;20035;-47
2024/02/27 05:57:38;;;;;;;6.03;1.60;;;5.70;99.90;;;;;;5105621;28;20032;-46
2024/02/27 06:00:05;;;;;;;3.63;1.73;;;5.70;99.90;;;;;;5106480;28;20027;-45
2024/02/27 06:02:31;;;;;;;5.15;1.67;;;5.80;99.90;;;;;;5106449;28;20023;-46
2024/02/27 06:04:56;;;;;;;3.53;1.63;;;5.70;99.90;;;;;;5106235;28;20028;-47
2024/02/27 06:07:22;;;;;;;5.57;1.85;;;5.80;99.90;;;;;;5106104;28;20036;-48
2024/02/27 06:09:48;;;;;;;6.40;2.50;;;5.70;99.90;;;;;;5106110;28;20040;-45
2024/02/27 06:12:13;;;;;;;4.60;2.00;;;5.80;99.90;;;;;;5106485;28;20059;-47
2024/02/27 06:14:39;;;;;;;6.68;1.80;;;5.80;99.90;;;;;;5106230;28;20122;-46
2024/02/27 06:17:05;;;;;;;6.13;2.00;;;5.80;99.90;;;;;;5106121;28;20031;-46
2024/02/27 06:19:31;;;;;;;4.32;2.40;;;5.80;99.90;;;;;;5106123;28;20031;-48
2024/02/27 06:22:13;;;;;;;4.82;1.88;;;5.80;99.90;;;;;;5105997;28;20056;-47
2024/02/27 06:24:39;;;;;;;9.70;2.28;;;5.80;99.90;;;;;;5106046;28;20035;-47
2024/02/27 06:27:05;;;;;;;5.60;1.73;;;5.80;99.90;;;;;;5105960;28;20026;-47
2024/02/27 06:29:31;;;;;;;4.18;1.83;;;5.80;99.90;;;;;;5105642;28;20035;-45
2024/02/27 06:31:56;;;;;;;6.88;2.63;;;5.80;99.90;;;;;;5105916;28;20079;-46
2024/02/27 06:34:22;;;;;;;4.72;2.58;;;5.80;99.90;;;;;;5106002;28;20081;-46
2024/02/27 06:36:48;;;;;;;8.43;3.15;;;5.90;99.90;;;;;;5105536;28;20032;-48
2024/02/27 06:39:14;;;;;;;6.35;2.88;;;5.90;99.90;;;;;;5105836;28;20020;-45
2024/02/27 06:41:40;;;;;;;8.75;3.30;;;5.90;99.90;;;;;;5105808;28;20039;-47
2024/02/27 06:44:05;;;;;;;10.52;4.15;;;5.90;99.90;;;;;;5105672;28;20055;-46
2024/02/27 06:46:31;;;;;;;7.68;2.20;;;6.00;99.90;;;;;;5105837;28;20052;-47
2024/02/27 06:48:57;;;;;;;6.68;2.92;;;6.30;99.90;;;;;;5105549;28;20042;-46
2024/02/27 06:51:22;;;;;;;5.75;2.47;;;6.50;99.90;;;;;;5105710;28;20085;-46
2024/02/27 06:53:48;;;;;;;10.75;3.08;;;6.60;99.90;;;;;;5105545;28;20016;-45
2024/02/27 06:56:14;;;;;;;13.55;4.85;;;6.70;99.90;;;;;;5105754;28;20033;-46
2024/02/27 06:58:40;;;;;;;8.13;2.53;;;6.80;99.90;;;;;;5109720;28;20216;-47
2024/02/27 07:01:05;;;;;;;12.55;3.97;;;6.70;99.90;;;;;;5109562;28;20026;-46
2024/02/27 07:03:31;;;;;;;9.60;3.22;;;6.80;99.90;;;;;;5109380;28;20031;-46
2024/02/27 07:06:00;;;;;;;10.50;3.80;;;6.80;99.90;;;;;;5109731;28;20047;-46
2024/02/27 07:08:26;;;;;;;9.38;2.90;;;6.80;99.90;;;;;;5108722;28;20181;-45
2024/02/27 07:10:52;;;;;;;10.25;4.25;;;6.80;99.90;;;;;;5109217;28;20056;-46
2024/02/27 07:13:18;;;;;;;7.50;2.72;;;6.80;99.90;;;;;;5109241;28;20043;-47
2024/02/27 07:15:44;;;;;;;9.77;2.33;;;6.70;99.90;;;;;;5109377;28;20030;-46
2024/02/27 07:18:10;;;;;;;8.52;3.35;;;6.70;99.90;;;;;;5108949;28;20306;-46
2024/02/27 07:20:36;;;;;;;8.00;2.80;;;6.70;99.90;;;;;;5109562;28;20086;-46
2024/02/27 07:23:02;;;;;;;4.93;1.10;;;6.70;99.90;;;;;;5109111;28;20052;-45
2024/02/27 07:25:28;;;;;;;7.68;2.33;;;6.70;99.90;;;;;;5109265;28;20032;-49
2024/02/27 07:27:53;;;;;;;6.82;2.13;;;6.70;99.90;;;;;;5109298;28;20294;-48
2024/02/27 07:30:19;;;;;;;6.78;2.03;;;6.80;99.90;;;;;;5109475;28;20035;-47
2024/02/27 07:32:45;;;;;;;12.25;3.63;;;6.80;99.90;;;;;;5109366;28;20148;-46
2024/02/27 07:35:10;;;;;;;8.13;2.50;;;6.80;99.90;;;;;;5109176;28;20242;-46
2024/02/27 07:37:38;;;;;;;9.60;2.90;;;6.80;99.90;;;;;;5109426;28;20320;-47
2024/02/27 07:40:04;;;;;;;5.32;1.65;;;6.80;99.90;;;;;;5091163;28;20032;-48
2024/02/27 07:42:30;;;;;;;4.75;1.90;;;6.90;99.90;;;;;;5108826;28;20039;-45
2024/02/27 07:44:55;;;;;;;7.57;2.00;;;6.90;99.90;;;;;;5090840;28;20043;-46
2024/02/27 07:47:21;;;;;;;9.27;2.13;;;7.00;99.90;;;;;;5090627;28;20032;-46
2024/02/27 07:49:47;;;;;;;5.93;1.63;;;7.00;99.90;;;;;;5108264;28;20094;-46
2024/02/27 07:52:13;;;;;;;7.07;2.08;;;7.10;99.90;;;;;;5108448;28;20040;-46
2024/02/27 07:54:39;;;;;;;10.75;1.98;;;7.10;99.90;;;;;;5108832;28;20167;-45
2024/02/27 07:57:05;;;;;;;5.90;1.75;;;7.10;99.90;;;;;;5108560;28;20212;-46
2024/02/27 07:59:31;;;;;;;5.80;1.60;;;7.10;99.90;;;;;;5108468;28;20032;-46
2024/02/27 08:01:56;;;;;;;8.05;1.90;;;7.10;99.90;;;;;;5108446;28;20031;-45
2024/02/27 08:04:22;;;;;;;6.22;1.70;;;7.10;99.90;;;;;;5108559;28;20043;-47
2024/02/27 08:06:47;;;;;;;5.40;1.50;;;7.10;99.90;;;;;;5107697;28;20055;-45
2024/02/27 08:09:16;;;;;;;7.13;1.95;;;7.10;99.90;;;;;;5106823;28;20081;-45
2024/02/27 08:11:42;;;;;;;10.48;1.70;;;7.20;99.90;;;;;;5107997;28;20028;-48
2024/02/27 08:14:07;;;;;;;6.38;1.95;;;7.20;99.90;;;;;;5108036;28;20059;-48
2024/02/27 08:16:33;;;;;;;5.07;1.70;;;7.20;99.90;;;;;;5107306;28;20032;-47
2024/02/27 08:19:03;;;;;;;5.97;2.00;;;7.30;99.90;;;;;;5108080;28;20091;-46
2024/02/27 08:21:33;;;;;;;8.00;2.42;;;7.30;99.90;;;;;;5106987;28;20080;-46
2024/02/27 08:24:00;;;;;;;6.57;1.13;;;7.30;99.90;;;;;;5107949;28;20055;-48
2024/02/27 08:26:26;;;;;;;3.65;1.40;;;7.30;99.90;;;;;;5106929;28;20054;-45
2024/02/27 08:28:52;;;;;;;5.07;1.67;;;7.30;99.90;;;;;;5089882;28;20032;-47
2024/02/27 08:31:17;;;;;;;6.07;2.00;;;7.40;99.90;;;;;;5107500;28;20096;-49
2024/02/27 08:33:43;;;;;;;7.90;1.50;;;7.40;99.90;;;;;;5089715;28;20024;-45
2024/02/27 08:36:09;;;;;;;6.03;1.83;;;7.50;99.90;;;;;;5107788;28;20027;-47
2024/02/27 08:38:34;;;;;;;5.53;1.73;;;7.50;99.90;;;;;;5107567;28;20056;-48
2024/02/27 08:41:00;;;;;;;5.30;1.52;;;7.50;99.90;;;;;;5107264;28;20052;-47
2024/02/27 08:43:26;;;;;;;5.32;1.40;;;7.50;99.90;;;;;;5107450;28;20024;-47
2024/02/27 08:45:52;;;;;;;6.82;1.92;;;7.60;99.90;;;;;;5107378;28;20058;-47
2024/02/27 08:48:18;;;;;;;8.52;1.58;;;7.60;99.90;;;;;;5107193;28;20059;-47
2024/02/27 08:50:45;;;;;;;8.82;2.17;;;7.70;99.90;;;;;;5107073;28;20039;-47
2024/02/27 08:53:12;;;;;;;10.45;2.80;;;7.70;99.90;;;;;;5107382;28;20055;-47
2024/02/27 08:55:38;;;;;;;8.85;3.35;;;7.80;99.90;;;;;;5107000;28;20096;-46
2024/02/27 08:58:04;;;;;;;15.20;4.43;;;7.80;99.90;;;;;;5106558;28;20028;-46
2024/02/27 09:00:30;;;;;;;12.15;2.70;;;7.80;99.90;;;;;;5107013;28;20039;-46
2024/02/27 09:02:55;;;;;;;12.98;4.78;;;7.90;99.90;;;;;;5106574;28;20084;-49
2024/02/27 09:05:21;;;;;;;13.35;4.43;;;8.00;99.90;;;;;;5107095;28;20025;-49
2024/02/27 09:07:47;;;;;;;10.88;2.85;;;8.00;99.90;;;;;;5106829;28;20032;-48
2024/02/27 09:10:13;;;;;;;9.63;2.50;;;8.00;99.90;;;;;;5106991;28;20047;-49
2024/02/27 09:12:41;;;;;;;6.30;2.28;;;8.10;99.90;;;;;;5106534;28;20290;-47
2024/02/27 09:15:08;;;;;;;11.50;3.42;;;8.00;99.90;;;;;;5106996;28;20020;-46
2024/02/27 09:17:34;;;;;;;10.60;1.95;;;8.00;99.90;;;;;;5106688;28;20020;-48
2024/02/27 09:20:01;;;;;;;7.43;2.08;;;8.00;99.90;;;;;;5106551;28;20100;-47
2024/02/27 09:22:26;;;;;;;6.22;2.03;;;8.10;99.90;;;;;;5106625;28;20028;-48
2024/02/27 09:24:52;;;;;;;7.22;2.60;;;8.10;99.90;;;;;;5106617;28;20177;-49
2024/02/27 09:27:22;;;;;;;11.15;2.85;;;8.00;99.90;;;;;;5106848;28;20138;-47
2024/02/27 09:29:48;;;;;;;15.40;2.40;;;8.00;99.90;;;;;;5106418;28;20199;-48
2024/02/27 09:32:16;;;;;;;7.00;2.00;;;7.90;99.90;;;;;;5106367;28;20031;-49
2024/02/27 09:34:42;;;;;;;11.23;2.67;;;7.90;99.90;;;;;;5106366;28;20020;-47
2024/02/27 09:37:08;;;;;;;10.23;2.53;;;7.90;99.90;;;;;;5106671;28;20028;-47
2024/02/27 09:39:34;;;;;;;13.30;1.77;;;8.00;99.90;;;;;;5106426;28;20020;-47
2024/02/27 09:42:12;;;;;;;9.77;2.03;;;8.00;99.90;;;;;;5106060;28;20076;-45
2024/02/27 09:44:46;;;;;;;9.63;1.92;;;8.00;99.90;;;;;;5106255;28;20028;-45
2024/02/27 09:47:14;;;;;;;6.88;1.40;;;7.90;99.90;;;;;;5105719;28;20020;-47
2024/02/27 09:49:45;;;;;;;12.15;2.10;;;7.90;99.90;;;;;;5106052;28;20235;-45
2024/02/27 09:52:15;;;;;;;9.52;2.40;;;8.00;99.90;;;;;;5106152;28;20127;-46
2024/02/27 09:54:40;;;;;;;9.85;1.92;;;8.00;99.90;;;;;;5106164;28;20218;-45
2024/02/27 09:57:06;;;;;;;9.80;2.30;;;8.00;99.90;;;;;;5087623;28;20047;-44
2024/02/27 09:59:32;;;;;;;9.32;1.88;;;8.00;99.90;;;;;;5105570;28;20087;-44
2024/02/27 10:02:04;;;;;;;6.95;2.42;;;8.00;99.90;;;;;;5106024;28;20035;-45
2024/02/27 10:04:30;;;;;;;9.00;1.90;;;8.00;99.90;;;;;;5104904;28;20035;-45
2024/02/27 10:06:56;;;;;;;14.10;1.80;;;8.00;99.90;;;;;;5105373;28;20024;-45
2024/02/27 10:09:21;;;;;;;10.80;2.40;;;8.00;99.90;;;;;;5104845;28;20031;-46
2024/02/27 10:11:47;;;;;;;11.40;2.05;;;8.00;99.90;;;;;;5088158;28;20039;-46
2024/02/27 10:14:20;;;;;;;9.60;2.00;;;8.00;99.90;;;;;;5105848;28;20105;-48
2024/02/27 10:16:46;;;;;;;6.30;1.45;;;8.10;99.90;;;;;;5104809;28;20027;-48
2024/02/27 10:19:11;;;;;;;10.25;2.17;;;8.10;99.90;;;;;;5104318;28;20073;-48
2024/02/27 10:21:37;;;;;;;8.88;2.20;;;8.10;99.90;;;;;;5105617;28;20070;-46
2024/02/27 10:24:03;;;;;;;13.32;2.30;;;8.10;99.90;;;;;;5104527;28;20270;-48
2024/02/27 10:26:28;;;;;;;5.72;1.92;;;8.10;99.90;;;;;;5105513;28;20028;-46
2024/02/27 10:28:54;;;;;;;11.20;2.42;;;8.20;99.90;;;;;;5105496;28;20273;-45
2024/02/27 10:31:20;;;;;;;8.18;1.88;;;8.30;99.90;;;;;;5103340;28;20073;-44
2024/02/27 10:33:47;;;;;;;11.45;2.50;;;8.30;99.90;;;;;;5104937;28;20030;-46
2024/02/27 10:36:12;;;;;;;9.25;1.80;;;8.30;99.90;;;;;;5104996;28;20304;-44
2024/02/27 10:38:38;;;;;;;9.48;2.35;;;8.40;99.90;;;;;;5104909;28;20096;-45
2024/02/27 10:41:04;;;;;;;7.70;1.63;;;8.30;99.90;;;;;;5087159;28;20224;-45
2024/02/27 10:43:33;;;;;;;11.40;1.73;;;8.30;99.90;;;;;;5105265;28;20028;-46
2024/02/27 10:45:58;;;;;;;14.73;6.33;;;8.20;99.90;;;;;;5103918;28;20036;-46
2024/02/27 10:48:24;;;;;;;7.13;2.00;;;8.20;99.90;;;;;;5105172;28;20377;-47
2024/02/27 10:50:50;;;;;;;12.30;2.72;;;8.20;99.90;;;;;;5104132;28;20197;-47
2024/02/27 10:53:15;;;;;;;11.05;3.10;;;8.20;99.90;;;;;;5105318;28;20043;-50
2024/02/27 10:55:41;;;;;;;16.38;3.25;;;8.20;99.90;;;;;;5087413;28;20020;-49
2024/02/27 10:58:07;;;;;;;11.90;2.63;;;8.20;99.90;;;;;;5087654;28;20077;-48
2024/02/27 11:00:35;;;;;;;10.38;2.40;;;8.30;99.90;;;;;;5087505;28;20163;-47
2024/02/27 11:03:01;;;;;;;11.07;2.60;;;8.30;99.90;;;;;;5104535;28;20031;-49
2024/02/27 11:05:27;;;;;;;12.88;1.98;;;8.30;99.90;;;;;;5105031;28;20331;-48
2024/02/27 11:07:56;;;;;;;7.32;2.17;;;8.30;99.90;;;;;;5105121;28;20066;-49
2024/02/27 11:10:24;;;;;;;12.00;3.90;;;8.40;99.90;;;;;;5103922;28;20020;-50
2024/02/27 11:12:50;;;;;;;14.35;5.82;;;8.40;99.90;;;;;;5104875;28;20035;-50
2024/02/27 11:15:16;;;;;;;55.45;29.90;;;8.40;99.90;;;;;;5103884;28;20032;-50
2024/02/27 11:17:47;;;;;;;18.10;5.93;;;8.40;99.90;;;;;;5087324;28;20079;-47
2024/02/27 11:20:15;;;;;;;14.65;3.33;;;8.50;99.90;;;;;;5103991;28;20096;-49
2024/02/27 11:22:42;;;;;;;7.72;2.00;;;8.50;99.90;;;;;;5105051;28;20172;-48
2024/02/27 11:25:08;;;;;;;5.18;1.75;;;8.50;99.90;;;;;;5104126;28;20058;-49
2024/02/27 11:27:34;;;;;;;12.73;3.05;;;8.60;99.90;;;;;;5105197;28;20020;-50
2024/02/27 11:30:00;;;;;;;11.48;3.75;;;8.60;99.90;;;;;;5104093;28;20288;-49
2024/02/27 11:32:25;;;;;;;21.30;8.55;;;8.60;99.90;;;;;;5105089;28;20020;-50
2024/02/27 11:34:51;;;;;;;32.78;16.55;;;8.60;99.90;;;;;;5103632;28;20039;-48
2024/02/27 11:37:20;;;;;;;74.90;37.60;;;8.60;99.90;;;;;;5104934;28;20177;-50
2024/02/27 11:39:46;;;;;;;188.40;133.90;;;8.60;99.90;;;;;;5087532;28;20028;-47
2024/02/27 11:42:26;;;;;;;169.68;117.78;;;8.70;99.90;;;;;;5087081;28;20032;-51
2024/02/27 11:45:05;;;;;;;18.15;9.75;;;8.70;99.90;;;;;;5108523;28;20039;-49
2024/02/27 11:47:44;;;;;;;10.77;3.38;;;8.70;99.90;;;;;;5108233;28;20185;-47
2024/02/27 11:50:10;;;;;;;6.05;2.20;;;8.70;99.90;;;;;;5108303;28;20039;-47
2024/02/27 11:52:36;;;;;;;6.28;2.00;;;8.70;99.90;;;;;;5107145;28;20032;-49
2024/02/27 11:55:08;;;;;;;8.48;2.35;;;8.70;99.90;;;;;;5108582;28;20167;-46
2024/02/27 11:57:37;;;;;;;8.45;1.75;;;8.70;99.90;;;;;;5108150;28;20028;-47
2024/02/27 12:00:16;;;;;;;4.00;1.60;;;8.70;99.90;;;;;;5108350;28;20286;-46
2024/02/27 12:02:48;;;;;;;6.60;1.58;;;8.70;99.90;;;;;;5108189;28;20040;-46
2024/02/27 12:05:18;;;;;;;4.57;1.75;;;8.80;99.90;;;;;;5108324;28;20016;-48
2024/02/27 12:07:43;;;;;;;;;;;8.90;99.90;;;;;;5108642;28;20068;-49
2024/02/27 12:10:12;;;;;;;9.02;3.20;;;8.90;99.90;;;;;;5108163;28;19940;-48
2024/02/27 12:12:39;;;;;;;12.43;5.15;;;8.90;99.90;;;;;;5108273;28;20024;-48
2024/02/27 12:15:05;;;;;;;8.38;1.67;;;8.90;99.90;;;;;;5107870;28;20046;-45
2024/02/27 12:17:32;;;;;;;13.98;2.90;;;8.90;99.90;;;;;;5107379;28;20028;-49
2024/02/27 12:20:03;;;;;;;9.52;1.95;;;9.00;99.90;;;;;;5107956;28;20151;-46
2024/02/27 12:22:28;;;;;;;9.00;2.67;;;9.00;99.90;;;;;;5107793;28;20032;-46
2024/02/27 12:24:58;;;;;;;8.85;3.83;;;9.00;99.90;;;;;;5107810;28;20047;-48
2024/02/27 12:27:24;;;;;;;8.20;1.90;;;9.00;99.90;;;;;;5107697;28;20027;-47
2024/02/27 12:29:50;;;;;;;14.20;2.97;;;9.10;99.90;;;;;;5107780;28;20036;-48
2024/02/27 12:32:15;;;;;;;15.13;2.72;;;9.10;99.90;;;;;;5089850;28;20312;-49
2024/02/27 12:34:41;;;;;;;12.48;2.65;;;9.10;99.90;;;;;;5106434;28;20084;-45
2024/02/27 12:37:07;;;;;;;15.68;3.10;;;9.20;99.90;;;;;;5107308;28;20020;-46
2024/02/27 12:39:33;;;;;;;12.07;2.60;;;9.20;99.90;;;;;;5107375;28;20035;-46
2024/02/27 12:42:00;;;;;;;15.68;3.17;;;9.20;99.90;;;;;;5107156;28;20020;-45
2024/02/27 12:44:26;;;;;;;9.38;2.35;;;9.20;99.90;;;;;;5089369;28;20234;-47
2024/02/27 12:46:52;;;;;;;17.80;3.22;;;9.20;99.90;;;;;;5106753;28;20031;-45
2024/02/27 12:49:18;;;;;;;27.75;2.95;;;9.30;99.90;;;;;;5106474;28;20077;-46